createdAt,value
2022-09-21T00:00:50.857Z,9.43
2022-09-21T00:03:17.745Z,9.43
2022-09-21T00:07:16.624Z,9.43
2022-09-21T00:09:43.240Z,9.41
2022-09-21T00:12:10.119Z,9.40
2022-09-21T00:14:36.876Z,9.38
2022-09-21T00:17:03.511Z,9.37
2022-09-21T00:19:30.551Z,9.37
2022-09-21T00:21:57.475Z,9.37
2022-09-21T00:24:24.168Z,9.37
2022-09-21T00:26:50.799Z,9.36
2022-09-21T00:29:17.718Z,9.38
2022-09-21T00:31:44.493Z,9.38
2022-09-21T00:34:11.133Z,9.36
2022-09-21T00:36:37.915Z,9.35
2022-09-21T00:39:07.363Z,9.35
2022-09-21T00:41:34.207Z,9.33
2022-09-21T00:44:16.098Z,9.33
2022-09-21T00:46:42.850Z,9.33
2022-09-21T00:49:09.477Z,9.32
2022-09-21T00:51:36.711Z,9.32
2022-09-21T00:54:07.625Z,9.32
2022-09-21T00:56:34.456Z,9.32
2022-09-21T00:59:01.169Z,9.31
2022-09-21T01:01:27.842Z,9.30
2022-09-21T01:03:57.273Z,9.29
2022-09-21T01:06:24.600Z,9.29
2022-09-21T01:08:53.479Z,9.29
2022-09-21T01:11:30.770Z,9.28
2022-09-21T01:14:07.847Z,9.28
2022-09-21T01:16:44.413Z,9.26
2022-09-21T01:19:45.277Z,9.24
2022-09-21T01:22:38.258Z,9.23
2022-09-21T01:25:49.649Z,9.23
2022-09-21T01:28:41.829Z,9.25
2022-09-21T01:31:12.067Z,9.26
2022-09-21T01:33:45.663Z,9.26
2022-09-21T01:36:14.168Z,9.28
2022-09-21T01:38:50.383Z,9.28
2022-09-21T01:41:19.557Z,9.28
2022-09-21T01:43:48.204Z,9.28
2022-09-21T01:46:17.301Z,9.27
2022-09-21T01:48:45.803Z,9.26
2022-09-21T01:51:14.919Z,9.26
2022-09-21T01:53:44.415Z,9.25
2022-09-21T01:56:12.643Z,9.25
2022-09-21T01:58:47.907Z,9.23
2022-09-21T02:01:16.932Z,9.24
2022-09-21T02:03:51.681Z,9.24
2022-09-21T02:06:18.527Z,9.23
2022-09-21T02:08:45.688Z,9.23
2022-09-21T02:11:13.515Z,9.23
2022-09-21T02:13:43.146Z,9.22
2022-09-21T02:16:12.326Z,9.22
2022-09-21T02:19:18.028Z,9.23
2022-09-21T02:22:03.932Z,9.24
2022-09-21T02:24:43.866Z,9.23
2022-09-21T02:27:13.574Z,9.21
2022-09-21T02:29:50.924Z,9.21
2022-09-21T02:32:23.828Z,9.21
2022-09-21T02:34:53.688Z,9.23
2022-09-21T02:37:23.960Z,9.23
2022-09-21T02:39:59.547Z,9.24
2022-09-21T02:42:28.598Z,9.23
2022-09-21T02:45:05.879Z,9.22
2022-09-21T02:47:43.210Z,9.23
2022-09-21T02:50:13.117Z,9.25
2022-09-21T02:52:40.781Z,9.27
2022-09-21T02:55:07.986Z,9.27
2022-09-21T02:57:34.772Z,9.26
2022-09-21T03:00:01.501Z,9.25
2022-09-21T03:02:42.337Z,9.25
2022-09-21T03:05:09.400Z,9.25
2022-09-21T03:07:36.192Z,9.26
2022-09-21T03:10:02.920Z,9.27
2022-09-21T03:12:29.825Z,9.27
2022-09-21T03:14:56.468Z,9.28
2022-09-21T03:17:23.191Z,9.27
2022-09-21T03:19:49.880Z,9.27
2022-09-21T03:22:17.925Z,9.29
2022-09-21T03:24:47.617Z,9.28
2022-09-21T03:27:18.751Z,9.29
2022-09-21T03:29:45.738Z,9.29
2022-09-21T03:32:12.715Z,9.28
2022-09-21T03:34:39.475Z,9.28
2022-09-21T03:37:06.977Z,9.28
2022-09-21T03:39:33.818Z,9.26
2022-09-21T03:42:00.895Z,9.25
2022-09-21T03:44:27.666Z,9.23
2022-09-21T03:46:54.377Z,9.25
2022-09-21T03:49:21.117Z,9.24
2022-09-21T03:51:47.897Z,9.24
2022-09-21T03:54:14.884Z,9.22
2022-09-21T03:56:41.819Z,9.21
2022-09-21T03:59:13.172Z,9.21
2022-09-21T04:01:40.844Z,9.23
2022-09-21T04:04:07.750Z,9.23
2022-09-21T04:06:34.535Z,9.24
2022-09-21T04:09:03.005Z,9.25
2022-09-21T04:11:30.170Z,9.25
2022-09-21T04:13:57.369Z,9.25
2022-09-21T04:16:25.469Z,9.24
2022-09-21T04:18:52.293Z,9.25
2022-09-21T04:21:19.352Z,9.26
2022-09-21T04:23:46.170Z,9.28
2022-09-21T04:26:27.121Z,9.28
2022-09-21T04:28:54.083Z,9.28
2022-09-21T04:31:21.367Z,9.28
2022-09-21T04:33:49.649Z,9.29
2022-09-21T04:36:17.690Z,9.29
2022-09-21T04:38:44.881Z,9.31
2022-09-21T04:41:11.993Z,9.32
2022-09-21T04:43:41.490Z,9.33
2022-09-21T04:46:09.586Z,9.33
2022-09-21T04:48:36.427Z,9.33
2022-09-21T04:51:03.193Z,9.32
2022-09-21T04:53:30.363Z,9.33
2022-09-21T04:55:57.135Z,9.33
2022-09-21T04:58:24.682Z,9.33
2022-09-21T05:00:52.283Z,9.34
2022-09-21T05:03:19.243Z,9.35
2022-09-21T05:05:49.739Z,9.37
2022-09-21T05:08:16.842Z,9.36
2022-09-21T05:10:44.134Z,9.37
2022-09-21T05:13:10.901Z,9.38
2022-09-21T05:15:38.885Z,9.40
2022-09-21T05:18:05.584Z,9.42
2022-09-21T05:20:32.485Z,9.43
2022-09-21T05:23:02.399Z,9.44
2022-09-21T05:25:29.315Z,9.43
2022-09-21T05:27:56.129Z,9.42
2022-09-21T05:30:23.079Z,9.42
2022-09-21T05:32:57.149Z,9.40
2022-09-21T05:35:29.941Z,9.43
2022-09-21T05:38:18.428Z,9.43
2022-09-21T05:40:47.782Z,9.42
2022-09-21T05:43:14.905Z,9.41
2022-09-21T05:45:47.601Z,9.41
2022-09-21T05:48:19.240Z,9.44
2022-09-21T05:50:50.120Z,9.44
2022-09-21T05:53:29.248Z,9.43
2022-09-21T05:56:00.939Z,9.43
2022-09-21T05:58:30.724Z,9.45
2022-09-21T06:01:01.042Z,9.44
2022-09-21T06:03:32.409Z,9.45
2022-09-21T06:05:59.423Z,9.44
2022-09-21T06:08:26.417Z,9.44
2022-09-21T06:10:53.253Z,9.45
2022-09-21T06:13:19.947Z,9.42
2022-09-21T06:15:46.671Z,9.42
2022-09-21T06:18:17.722Z,9.46
2022-09-21T06:20:45.265Z,9.50
2022-09-21T06:23:12.652Z,9.54
2022-09-21T06:25:39.436Z,9.59
2022-09-21T06:28:07.049Z,9.60
2022-09-21T06:30:36.717Z,9.60
2022-09-21T06:33:04.520Z,9.62
2022-09-21T06:35:31.846Z,9.64
2022-09-21T06:38:16.732Z,9.68
2022-09-21T06:40:43.591Z,9.72
2022-09-21T06:43:10.383Z,9.74
2022-09-21T06:45:37.094Z,9.78
2022-09-21T06:48:04.016Z,9.80
2022-09-21T06:50:30.789Z,9.81
2022-09-21T06:52:59.752Z,9.80
2022-09-21T06:55:26.568Z,9.81
2022-09-21T06:57:53.411Z,9.81
2022-09-21T07:00:20.090Z,9.78
2022-09-21T07:02:46.900Z,9.77
2022-09-21T07:05:13.583Z,9.74
2022-09-21T07:07:40.560Z,9.71
2022-09-21T07:10:13.147Z,9.67
2022-09-21T07:12:41.722Z,9.65
2022-09-21T07:15:10.426Z,9.60
2022-09-21T07:17:38.480Z,9.56
2022-09-21T07:20:05.877Z,9.54
2022-09-21T07:22:32.840Z,9.53
2022-09-21T07:24:59.777Z,9.51
2022-09-21T07:27:26.693Z,9.52
2022-09-21T07:29:53.526Z,9.54
2022-09-21T07:32:20.285Z,9.60
2022-09-21T07:34:46.967Z,9.63
2022-09-21T07:37:14.498Z,9.62
2022-09-21T07:39:41.322Z,9.59
2022-09-21T07:42:08.091Z,9.57
2022-09-21T07:44:34.699Z,9.56
2022-09-21T07:47:03.531Z,9.55
2022-09-21T07:49:30.358Z,9.57
2022-09-21T07:52:01.409Z,9.57
2022-09-21T07:54:30.548Z,9.59
2022-09-21T07:57:15.820Z,9.63
2022-09-21T07:59:42.609Z,9.64
2022-09-21T08:02:09.389Z,9.67
2022-09-21T08:04:36.356Z,9.68
2022-09-21T08:07:03.284Z,9.67
2022-09-21T08:09:30.051Z,9.68
2022-09-21T08:11:57.664Z,9.68
2022-09-21T08:14:26.534Z,9.69
2022-09-21T08:16:53.685Z,9.72
2022-09-21T08:19:20.991Z,9.74
2022-09-21T08:21:54.924Z,9.77
2022-09-21T08:24:25.846Z,9.80
2022-09-21T08:26:52.897Z,9.83
2022-09-21T08:29:19.723Z,9.89
2022-09-21T08:31:46.908Z,9.94
2022-09-21T08:34:14.353Z,10.01
2022-09-21T08:36:41.148Z,10.05
2022-09-21T08:39:08.555Z,10.06
2022-09-21T08:41:41.326Z,10.07
2022-09-21T08:44:15.244Z,10.10
2022-09-21T08:46:42.135Z,10.13
2022-09-21T08:49:13.918Z,10.13
2022-09-21T08:51:55.619Z,10.11
2022-09-21T08:54:29.332Z,10.09
2022-09-21T08:57:11.521Z,10.09
2022-09-21T08:59:39.248Z,10.10
2022-09-21T09:02:38.805Z,10.12
2022-09-21T09:05:24.821Z,10.18
2022-09-21T09:08:19.941Z,10.24
2022-09-21T09:11:40.219Z,10.32
2022-09-21T09:14:14.896Z,10.36
2022-09-21T09:17:06.193Z,10.39
2022-09-21T09:19:38.256Z,10.40
2022-09-21T09:22:05.129Z,10.41
2022-09-21T09:24:33.679Z,10.41
2022-09-21T09:27:22.262Z,10.41
2022-09-21T09:29:53.841Z,10.42
2022-09-21T09:32:20.913Z,10.45
2022-09-21T09:35:05.367Z,10.49
2022-09-21T09:37:34.171Z,10.54
2022-09-21T09:40:01.300Z,10.58
2022-09-21T09:42:37.127Z,10.62
2022-09-21T09:45:13.340Z,10.64
2022-09-21T09:48:16.035Z,10.65
2022-09-21T09:50:42.922Z,10.64
2022-09-21T09:53:12.779Z,10.63
2022-09-21T09:55:41.144Z,10.60
2022-09-21T09:58:19.117Z,10.57
2022-09-21T10:00:54.207Z,10.57
2022-09-21T10:03:23.120Z,10.60
2022-09-21T10:05:50.085Z,10.65
2022-09-21T10:08:39.299Z,10.69
2022-09-21T10:11:06.139Z,10.75
2022-09-21T10:13:39.755Z,10.80
2022-09-21T10:16:19.696Z,10.88
2022-09-21T10:18:52.470Z,10.93
2022-09-21T10:21:20.535Z,10.97
2022-09-21T10:23:53.726Z,11.02
2022-09-21T10:26:20.659Z,11.07
2022-09-21T10:29:01.203Z,11.10
2022-09-21T10:31:31.026Z,11.14
2022-09-21T10:34:03.883Z,11.18
2022-09-21T10:36:37.034Z,11.20
2022-09-21T10:39:18.763Z,11.20
2022-09-21T10:42:03.951Z,11.21
2022-09-21T10:44:50.724Z,11.22
2022-09-21T10:47:37.222Z,11.22
2022-09-21T10:50:06.174Z,11.17
2022-09-21T10:52:52.271Z,11.10
2022-09-21T10:55:20.850Z,11.06
2022-09-21T10:57:47.740Z,11.03
2022-09-21T11:00:35.469Z,10.99
2022-09-21T11:03:30.150Z,10.94
2022-09-21T11:06:04.718Z,10.93
2022-09-21T11:08:47.379Z,10.91
2022-09-21T11:11:30.299Z,10.90
2022-09-21T11:14:18.367Z,10.89
2022-09-21T11:16:54.833Z,10.93
2022-09-21T11:19:35.462Z,10.96
2022-09-21T11:22:05.198Z,10.98
2022-09-21T11:25:11.255Z,11.01
2022-09-21T11:27:40.286Z,10.97
2022-09-21T11:30:13.405Z,10.90
2022-09-21T11:32:52.986Z,10.82
2022-09-21T11:36:04.875Z,10.75
2022-09-21T11:38:38.796Z,10.73
2022-09-21T11:41:21.959Z,10.73
2022-09-21T11:43:51.480Z,10.70
2022-09-21T11:46:27.285Z,10.71
2022-09-21T11:49:03.190Z,10.76
2022-09-21T11:51:38.372Z,10.83
2022-09-21T11:54:20.720Z,10.92
2022-09-21T11:57:01.231Z,11.03
2022-09-21T12:00:02.271Z,11.15
2022-09-21T12:02:55.956Z,11.28
2022-09-21T12:05:45.449Z,11.37
2022-09-21T12:08:36.458Z,11.43
2022-09-21T12:11:14.105Z,11.47
2022-09-21T12:13:50.598Z,11.50
2022-09-21T12:16:39.061Z,11.52
2022-09-21T12:19:24.001Z,11.52
2022-09-21T12:24:26.547Z,11.58
2022-09-21T12:26:57.597Z,11.63
2022-09-21T12:29:37.167Z,11.68
2022-09-21T12:32:25.371Z,11.71
2022-09-21T12:34:56.301Z,11.73
2022-09-21T12:37:46.298Z,11.75
2022-09-21T12:40:28.461Z,11.80
2022-09-21T12:43:03.791Z,11.86
2022-09-21T12:45:34.769Z,11.89
2022-09-21T12:48:06.434Z,11.89
2022-09-21T12:50:43.161Z,11.85
2022-09-21T12:53:17.207Z,11.75
2022-09-21T12:56:18.299Z,11.58
2022-09-21T12:59:03.159Z,11.35
2022-09-21T13:01:31.851Z,11.20
2022-09-21T13:04:12.372Z,11.09
2022-09-21T13:07:02.134Z,10.98
2022-09-21T13:09:28.918Z,10.91
2022-09-21T13:11:56.839Z,10.88
2022-09-21T13:14:36.306Z,10.85
2022-09-21T13:17:04.657Z,10.83
2022-09-21T13:19:33.541Z,10.83
2022-09-21T13:22:16.113Z,10.81
2022-09-21T13:24:42.950Z,10.80
2022-09-21T13:27:09.565Z,10.83
2022-09-21T13:29:38.085Z,10.84
2022-09-21T13:32:14.070Z,10.85
2022-09-21T13:34:44.429Z,10.87
2022-09-21T13:37:11.187Z,10.92
2022-09-21T13:39:48.579Z,10.94
2022-09-21T13:42:30.884Z,10.99
2022-09-21T13:45:18.739Z,11.06
2022-09-21T13:47:47.163Z,11.14
2022-09-21T13:50:23.523Z,11.18
2022-09-21T13:53:20.048Z,11.23
2022-09-21T13:55:51.076Z,11.28
2022-09-21T13:58:21.091Z,11.37
2022-09-21T14:00:56.378Z,11.43
2022-09-21T14:03:39.891Z,11.49
2022-09-21T14:06:15.801Z,11.52
2022-09-21T14:08:54.932Z,11.52
2022-09-21T14:11:31.687Z,11.55
2022-09-21T14:14:09.581Z,11.56
2022-09-21T14:16:39.564Z,11.53
2022-09-21T14:19:15.457Z,11.53
2022-09-21T14:22:05.482Z,11.57
2022-09-21T14:24:42.792Z,11.63
2022-09-21T14:27:18.585Z,11.67
2022-09-21T14:29:48.775Z,11.71
2022-09-21T14:32:19.397Z,11.73
2022-09-21T14:34:47.691Z,11.75
2022-09-21T14:37:36.738Z,11.75
2022-09-21T14:40:17.069Z,11.72
2022-09-21T14:42:44.436Z,11.68
2022-09-21T14:45:18.134Z,11.66
2022-09-21T14:48:03.198Z,11.62
2022-09-21T14:50:47.893Z,11.60
2022-09-21T14:53:23.997Z,11.55
2022-09-21T14:56:10.832Z,11.50
2022-09-21T14:59:27.954Z,11.46
2022-09-21T15:02:16.390Z,11.44
2022-09-21T15:05:14.041Z,11.41
2022-09-21T15:08:21.349Z,11.38
2022-09-21T15:10:56.901Z,11.36
2022-09-21T15:14:01.108Z,11.34
2022-09-21T15:16:36.768Z,11.31
2022-09-21T15:19:37.320Z,11.31
2022-09-21T15:22:16.654Z,11.29
2022-09-21T15:24:57.292Z,11.31
2022-09-21T15:27:27.820Z,11.31
2022-09-21T15:29:55.616Z,11.31
2022-09-21T15:32:38.976Z,11.30
2022-09-21T15:35:32.733Z,11.28
2022-09-21T15:38:00.896Z,11.28
2022-09-21T15:40:35.610Z,11.27
2022-09-21T15:43:11.542Z,11.22
2022-09-21T15:45:59.273Z,11.17
2022-09-21T15:48:27.386Z,11.14
2022-09-21T15:50:58.235Z,11.11
2022-09-21T15:53:26.658Z,11.09
2022-09-21T15:55:55.260Z,11.08
2022-09-21T15:58:37.301Z,11.09
2022-09-21T16:01:11.159Z,11.08
2022-09-21T16:03:39.042Z,11.05
2022-09-21T16:06:29.026Z,11.00
2022-09-21T16:08:55.913Z,10.96
2022-09-21T16:11:29.852Z,10.92
2022-09-21T16:14:37.759Z,10.90
2022-09-21T16:17:11.617Z,10.88
2022-09-21T16:19:59.103Z,10.86
2022-09-21T16:22:29.500Z,10.86
2022-09-21T16:25:00.749Z,10.89
2022-09-21T16:27:29.267Z,10.91
2022-09-21T16:29:56.988Z,10.94
2022-09-21T16:32:32.066Z,10.96
2022-09-21T16:35:29.409Z,10.97
2022-09-21T16:37:59.079Z,10.98
2022-09-21T16:40:27.087Z,10.99
2022-09-21T16:42:54.350Z,10.99
2022-09-21T16:45:31.862Z,10.99
2022-09-21T16:47:59.647Z,10.99
2022-09-21T16:50:26.679Z,10.99
2022-09-21T16:52:53.633Z,11.00
2022-09-21T16:55:22.427Z,10.98
2022-09-21T16:57:51.255Z,10.98
2022-09-21T17:00:20.750Z,10.97
2022-09-21T17:02:48.260Z,10.94
2022-09-21T17:05:18.188Z,10.91
2022-09-21T17:07:55.382Z,10.90
2022-09-21T17:10:23.783Z,10.89
2022-09-21T17:12:52.019Z,10.88
2022-09-21T17:15:18.842Z,10.85
2022-09-21T17:17:45.711Z,10.84
2022-09-21T17:20:20.845Z,10.80
2022-09-21T17:22:48.311Z,10.76
2022-09-21T17:25:15.310Z,10.72
2022-09-21T17:27:45.247Z,10.70
2022-09-21T17:30:13.452Z,10.67
2022-09-21T17:32:42.586Z,10.64
2022-09-21T17:35:19.049Z,10.61
2022-09-21T17:37:46.069Z,10.56
2022-09-21T17:40:13.799Z,10.52
2022-09-21T17:42:43.239Z,10.47
2022-09-21T17:45:21.627Z,10.42
2022-09-21T17:47:50.518Z,10.36
2022-09-21T17:50:20.976Z,10.29
2022-09-21T17:53:06.357Z,10.23
2022-09-21T17:55:33.544Z,10.19
2022-09-21T17:58:23.392Z,10.17
2022-09-21T18:01:28.079Z,10.16
2022-09-21T18:03:55.164Z,10.14
2022-09-21T18:06:22.968Z,10.12
2022-09-21T18:08:50.642Z,10.10
2022-09-21T18:11:48.070Z,10.10
2022-09-21T18:14:41.117Z,10.07
2022-09-21T18:17:26.630Z,10.05
2022-09-21T18:20:13.431Z,10.03
2022-09-21T18:22:59.040Z,10.01
2022-09-21T18:25:47.872Z,9.97
2022-09-21T18:28:40.267Z,9.92
2022-09-21T18:31:25.994Z,9.90
2022-09-21T18:34:00.332Z,9.87
2022-09-21T18:36:31.771Z,9.85
2022-09-21T18:39:23.695Z,9.82
2022-09-21T18:42:06.416Z,9.77
2022-09-21T18:44:41.900Z,9.71
2022-09-21T18:47:20.516Z,9.62
2022-09-21T18:50:06.098Z,9.53
2022-09-21T18:52:55.265Z,9.44
2022-09-21T18:55:27.427Z,9.31
2022-09-21T18:57:55.771Z,9.22
2022-09-21T19:00:23.537Z,9.16
2022-09-21T19:03:12.654Z,9.13
2022-09-21T19:05:37.799Z,9.13
2022-09-21T19:08:11.029Z,9.15
2022-09-21T19:10:51.846Z,9.15
2022-09-21T19:13:27.863Z,9.16
2022-09-21T19:16:15.820Z,9.16
2022-09-21T19:19:20.143Z,9.17
2022-09-21T19:21:58.419Z,9.18
2022-09-21T19:24:55.483Z,9.20
2022-09-21T19:27:34.350Z,9.22
2022-09-21T19:30:14.728Z,9.24
2022-09-21T19:32:49.388Z,9.25
2022-09-21T19:35:22.091Z,9.27
2022-09-21T19:37:49.321Z,9.27
2022-09-21T19:40:17.353Z,9.28
2022-09-21T19:42:53.865Z,9.31
2022-09-21T19:45:27.907Z,9.33
2022-09-21T19:47:56.877Z,9.34
2022-09-21T19:50:26.715Z,9.35
2022-09-21T19:53:13.665Z,9.35
2022-09-21T19:55:59.197Z,9.37
2022-09-21T19:58:44.392Z,9.36
2022-09-21T20:01:11.645Z,9.32
2022-09-21T20:03:41.319Z,9.31
2022-09-21T20:06:20.944Z,9.30
2022-09-21T20:08:50.832Z,9.30
2022-09-21T20:11:22.510Z,9.31
2022-09-21T20:14:07.976Z,9.32
2022-09-21T20:16:40.451Z,9.33
2022-09-21T20:19:14.739Z,9.34
2022-09-21T20:21:43.745Z,9.35
2022-09-21T20:24:23.884Z,9.36
2022-09-21T20:26:51.191Z,9.37
2022-09-21T20:29:19.536Z,9.37
2022-09-21T20:31:47.924Z,9.37
2022-09-21T20:34:15.532Z,9.37
2022-09-21T20:36:42.219Z,9.36
2022-09-21T20:39:08.905Z,9.35
2022-09-21T20:41:35.716Z,9.34
2022-09-21T20:44:02.520Z,9.32
2022-09-21T20:46:30.024Z,9.31
2022-09-21T20:49:04.476Z,9.29
2022-09-21T20:51:33.922Z,9.29
2022-09-21T20:54:04.631Z,9.29
2022-09-21T20:56:31.441Z,9.29
2022-09-21T20:58:58.123Z,9.28
2022-09-21T21:01:25.016Z,9.27
2022-09-21T21:03:51.819Z,9.26
2022-09-21T21:06:21.496Z,9.26
2022-09-21T21:08:48.237Z,9.27
2022-09-21T21:11:14.825Z,9.27
2022-09-21T21:13:41.800Z,9.27
2022-09-21T21:16:12.025Z,9.28
2022-09-21T21:18:42.515Z,9.28
2022-09-21T21:21:09.399Z,9.28
2022-09-21T21:23:56.431Z,9.28
2022-09-21T21:26:38.197Z,9.29
2022-09-21T21:29:09.801Z,9.30
2022-09-21T21:31:36.451Z,9.31
2022-09-21T21:34:03.244Z,9.31
2022-09-21T21:36:29.844Z,9.30
2022-09-21T21:38:56.623Z,9.28
2022-09-21T21:41:23.482Z,9.28
2022-09-21T21:43:50.149Z,9.29
2022-09-21T21:46:16.888Z,9.29
2022-09-21T21:48:45.653Z,9.29
2022-09-21T21:51:12.816Z,9.28
2022-09-21T21:53:39.891Z,9.25
2022-09-21T21:56:10.650Z,9.26
2022-09-21T21:58:37.415Z,9.26
2022-09-21T22:01:10.909Z,9.26
2022-09-21T22:03:38.268Z,9.25
2022-09-21T22:06:05.237Z,9.25
2022-09-21T22:08:32.490Z,9.25
2022-09-21T22:10:59.740Z,9.24
2022-09-21T22:13:28.929Z,9.24
2022-09-21T22:16:05.956Z,9.23
2022-09-21T22:18:32.985Z,9.23
2022-09-21T22:21:22.892Z,9.23
2022-09-21T22:23:53.869Z,9.25
2022-09-21T22:26:21.137Z,9.27
2022-09-21T22:28:49.438Z,9.29
2022-09-21T22:31:17.672Z,9.29
2022-09-21T22:33:44.667Z,9.28
2022-09-21T22:36:14.428Z,9.25
2022-09-21T22:38:43.042Z,9.20
2022-09-21T22:41:14.316Z,9.16
2022-09-21T22:43:41.013Z,9.12
2022-09-21T22:46:07.878Z,9.08
2022-09-21T22:48:35.253Z,9.05
2022-09-21T22:51:02.209Z,9.03
2022-09-21T22:53:28.909Z,8.99
2022-09-21T22:56:05.599Z,8.98
2022-09-21T22:58:33.034Z,8.92
2022-09-21T23:01:10.458Z,8.81
2022-09-21T23:03:37.918Z,8.71
2022-09-21T23:06:05.781Z,8.64
2022-09-21T23:08:32.679Z,8.58
2022-09-21T23:11:13.259Z,8.51
2022-09-21T23:13:40.262Z,8.46
2022-09-21T23:16:08.422Z,8.44
2022-09-21T23:18:35.217Z,8.42
2022-09-21T23:21:02.849Z,8.39
2022-09-21T23:23:29.690Z,8.34
2022-09-21T23:26:04.489Z,8.31
2022-09-21T23:28:31.271Z,8.29
2022-09-21T23:30:58.514Z,8.28
2022-09-21T23:33:25.219Z,8.27
2022-09-21T23:35:51.936Z,8.25
2022-09-21T23:38:18.615Z,8.22
2022-09-21T23:40:45.384Z,8.17
2022-09-21T23:43:12.040Z,8.15
2022-09-21T23:45:38.725Z,8.15
2022-09-21T23:48:05.430Z,8.13
2022-09-21T23:50:32.067Z,8.11
2022-09-21T23:52:58.745Z,8.09
2022-09-21T23:55:25.426Z,8.06
2022-09-21T23:57:52.124Z,8.05
